Time;durP1;ratioP1;P1;durP2;ratioP2;P2;SDS_P1;SDS_P2;PMS_P1;PMS_P2;Temp;Humidity;BMP_temperature;BMP_pressure;BME280_temperature;BME280_humidity;BME280_pressure;Samples;Min_cycle;Max_cycle;Signal;HPM_P1;HPM_P2
2023/09/11 00:02:02;;;;;;;42.37;38.20;;;19.80;99.90;;;;;;5032936;28;20546;-78
2023/09/11 00:04:30;;;;;;;42.23;37.97;;;19.80;99.90;;;;;;5031700;28;20562;-79
2023/09/11 00:07:00;;;;;;;45.10;40.47;;;19.70;99.90;;;;;;5032372;28;20439;-78
2023/09/11 00:09:30;;;;;;;43.87;39.50;;;19.70;99.90;;;;;;5032323;28;20454;-78
2023/09/11 00:11:58;;;;;;;47.13;42.63;;;19.70;99.90;;;;;;5033937;28;20952;-78
2023/09/11 00:14:26;;;;;;;44.67;40.17;;;19.70;99.90;;;;;;5032301;28;20607;-78
2023/09/11 00:16:54;;;;;;;43.53;39.00;;;19.60;99.90;;;;;;5032294;28;20509;-78
2023/09/11 00:19:23;;;;;;;43.57;39.07;;;19.60;99.90;;;;;;5033406;28;20474;-78
2023/09/11 00:21:51;;;;;;;44.07;39.50;;;19.60;99.90;;;;;;5032199;28;20478;-78
2023/09/11 00:24:19;;;;;;;43.90;39.60;;;19.60;99.90;;;;;;5032154;28;20565;-78
2023/09/11 00:26:49;;;;;;;44.00;39.60;;;19.60;99.90;;;;;;5032273;28;20499;-78
2023/09/11 00:29:17;;;;;;;46.03;41.33;;;19.60;99.90;;;;;;5032514;28;20447;-77
2023/09/11 00:31:45;;;;;;;65.53;55.80;;;19.60;99.90;;;;;;5032205;28;20534;-78
2023/09/11 00:34:14;;;;;;;52.07;46.60;;;19.60;99.90;;;;;;5032272;28;20517;-78
2023/09/11 00:36:42;;;;;;;47.37;42.37;;;19.50;99.90;;;;;;5032379;28;20439;-78
2023/09/11 00:39:10;;;;;;;46.40;41.67;;;19.50;99.90;;;;;;5034107;28;20565;-78
2023/09/11 00:41:40;;;;;;;46.00;41.50;;;19.50;99.90;;;;;;5033657;28;20972;-78
2023/09/11 00:44:10;;;;;;;45.10;40.40;;;19.50;99.90;;;;;;5032201;28;20562;-78
2023/09/11 00:46:39;;;;;;;48.70;43.80;;;19.40;99.90;;;;;;5032340;28;20451;-78
2023/09/11 00:49:08;;;;;;;45.37;40.93;;;19.40;99.90;;;;;;5033645;28;20435;-78
2023/09/11 00:51:37;;;;;;;44.80;40.50;;;19.40;99.90;;;;;;5033890;28;20526;-78
2023/09/11 00:54:06;;;;;;;44.20;39.87;;;19.40;99.90;;;;;;5032183;28;20565;-78
2023/09/11 00:56:35;;;;;;;46.70;42.27;;;19.40;99.90;;;;;;5032108;28;20459;-78
2023/09/11 00:59:04;;;;;;;43.90;39.47;;;19.40;99.90;;;;;;5031875;28;20470;-78
2023/09/11 01:01:34;;;;;;;44.60;40.30;;;19.40;99.90;;;;;;5032030;28;20509;-78
2023/09/11 01:04:02;;;;;;;44.93;40.53;;;19.30;99.90;;;;;;5031882;28;20475;-78
2023/09/11 01:06:30;;;;;;;44.10;39.80;;;19.30;99.90;;;;;;5032051;28;20450;-78
2023/09/11 01:08:58;;;;;;;44.87;40.43;;;19.30;99.90;;;;;;5031781;28;20447;-78
2023/09/11 01:11:27;;;;;;;41.10;37.07;;;19.30;99.90;;;;;;5032928;28;20443;-78
2023/09/11 01:13:56;;;;;;;43.47;39.03;;;19.30;99.90;;;;;;5031657;28;20530;-78
2023/09/11 01:16:29;;;;;;;40.83;36.83;;;19.20;99.90;;;;;;5034000;28;20489;-78
2023/09/11 01:19:06;;;;;;;42.20;38.10;;;19.20;99.90;;;;;;5036953;28;20466;-78
2023/09/11 01:22:05;;;;;;;41.93;37.87;;;19.20;99.90;;;;;;5035505;28;20443;-78
2023/09/11 01:25:20;;;;;;;42.23;38.03;;;19.20;99.90;;;;;;5035304;28;20562;-78
2023/09/11 01:28:09;;;;;;;42.93;38.70;;;19.20;99.90;;;;;;5036642;28;20466;-78
2023/09/11 01:30:40;;;;;;;42.43;38.23;;;19.10;99.90;;;;;;5036842;28;20450;-78
2023/09/11 01:33:08;;;;;;;41.90;37.90;;;19.10;99.90;;;;;;5035415;28;20438;-78
2023/09/11 01:35:39;;;;;;;39.50;35.57;;;19.10;99.90;;;;;;5035476;28;21011;-78
2023/09/11 01:38:08;;;;;;;40.10;36.37;;;19.10;99.90;;;;;;5035246;28;20451;-78
2023/09/11 01:40:38;;;;;;;42.77;38.60;;;19.10;99.90;;;;;;5035058;28;20471;-78
2023/09/11 01:43:09;;;;;;;41.57;37.57;;;19.10;99.90;;;;;;5035124;28;20504;-78
2023/09/11 01:45:41;;;;;;;37.60;34.13;;;19.10;99.90;;;;;;5035818;28;20892;-78
2023/09/11 01:48:09;;;;;;;39.90;36.10;;;19.00;99.90;;;;;;5035190;28;20926;-77
2023/09/11 01:50:39;;;;;;;43.50;39.10;;;19.00;99.90;;;;;;5035059;28;20483;-78
2023/09/11 01:53:08;;;;;;;39.43;35.70;;;19.00;99.90;;;;;;5036257;28;20983;-78
2023/09/11 01:55:37;;;;;;;42.53;38.50;;;19.00;99.90;;;;;;5034950;28;20965;-78
2023/09/11 01:58:05;;;;;;;39.37;35.43;;;19.00;99.90;;;;;;5035645;28;20569;-78
2023/09/11 02:00:33;;;;;;;42.30;38.00;;;19.00;99.90;;;;;;5034864;28;20910;-78
2023/09/11 02:03:03;;;;;;;40.77;36.67;;;19.00;99.90;;;;;;5034943;28;20485;-78
2023/09/11 02:05:31;;;;;;;39.47;35.57;;;19.00;99.90;;;;;;5034554;28;20888;-78
2023/09/11 02:07:59;;;;;;;39.33;35.70;;;18.90;99.90;;;;;;5034822;28;20443;-78
2023/09/11 02:10:28;;;;;;;40.80;36.80;;;18.90;99.90;;;;;;5034606;28;20443;-78
2023/09/11 02:12:56;;;;;;;39.93;36.00;;;18.90;99.90;;;;;;5034723;28;20443;-78
2023/09/11 02:15:24;;;;;;;39.60;35.70;;;18.90;99.90;;;;;;5034414;28;20470;-78
2023/09/11 02:17:52;;;;;;;39.17;35.40;;;18.90;99.90;;;;;;5034701;28;20912;-78
2023/09/11 02:20:23;;;;;;;37.27;33.70;;;18.80;99.90;;;;;;5034755;28;20474;-78
2023/09/11 02:22:51;;;;;;;38.80;35.03;;;18.80;99.90;;;;;;5034343;28;20449;-78
2023/09/11 02:25:19;;;;;;;39.53;35.70;;;18.80;99.90;;;;;;5035789;28;20459;-78
2023/09/11 02:27:47;;;;;;;38.23;34.70;;;18.80;99.90;;;;;;5033394;28;20861;-78
2023/09/11 02:30:16;;;;;;;40.70;36.77;;;18.80;99.90;;;;;;5035668;28;20431;-78
2023/09/11 02:32:45;;;;;;;39.47;35.50;;;18.80;99.90;;;;;;5034212;28;20447;-78
2023/09/11 02:35:13;;;;;;;40.30;36.60;;;18.80;99.90;;;;;;5035303;28;20516;-78
2023/09/11 02:37:42;;;;;;;36.23;32.77;;;18.80;99.90;;;;;;5034172;28;20542;-78
2023/09/11 02:40:11;;;;;;;38.20;34.50;;;18.70;99.90;;;;;;5033973;28;20484;-78
2023/09/11 02:42:39;;;;;;;40.37;36.47;;;18.70;99.90;;;;;;5034420;28;20438;-78
2023/09/11 02:45:09;;;;;;;39.67;35.83;;;18.70;99.90;;;;;;5034083;28;20536;-78
2023/09/11 02:47:37;;;;;;;38.73;35.07;;;18.70;99.90;;;;;;5035444;28;20934;-78
2023/09/11 02:50:07;;;;;;;38.03;34.53;;;18.70;99.90;;;;;;5035657;28;20861;-77
2023/09/11 02:52:35;;;;;;;37.30;33.80;;;18.70;99.90;;;;;;5034144;28;20482;-78
2023/09/11 02:55:05;;;;;;;36.90;33.40;;;18.60;99.90;;;;;;5033765;28;20539;-78
2023/09/11 02:57:34;;;;;;;39.40;35.57;;;18.60;99.90;;;;;;5033812;28;20509;-78
2023/09/11 03:00:05;;;;;;;38.23;34.43;;;18.60;99.90;;;;;;5033954;28;20471;-78
2023/09/11 03:02:33;;;;;;;34.93;31.77;;;18.60;99.90;;;;;;5035307;28;20929;-78
2023/09/11 03:05:02;;;;;;;37.43;33.90;;;18.60;99.90;;;;;;5034996;28;20515;-78
2023/09/11 03:07:30;;;;;;;37.83;34.33;;;18.60;99.90;;;;;;5033729;28;20474;-78
2023/09/11 03:09:58;;;;;;;37.80;34.20;;;18.60;99.90;;;;;;5033773;28;20508;-78
2023/09/11 03:12:29;;;;;;;36.80;33.40;;;18.50;99.90;;;;;;5034875;28;20809;-78
2023/09/11 03:15:03;;;;;;;38.07;34.47;;;18.50;99.90;;;;;;5033714;28;21024;-77
2023/09/11 03:17:31;;;;;;;41.80;37.70;;;18.50;99.90;;;;;;5033997;28;20526;-78
2023/09/11 03:20:00;;;;;;;38.63;34.77;;;18.50;99.90;;;;;;5033472;28;20470;-78
2023/09/11 03:22:29;;;;;;;39.63;35.93;;;18.50;99.90;;;;;;5034917;28;20466;-78
2023/09/11 03:24:58;;;;;;;43.17;38.87;;;18.50;99.90;;;;;;5033108;28;20481;-78
2023/09/11 03:27:27;;;;;;;37.67;34.07;;;18.40;99.90;;;;;;5033190;28;20443;-78
2023/09/11 03:29:56;;;;;;;40.40;36.50;;;18.40;99.90;;;;;;5033265;28;20481;-78
2023/09/11 03:32:27;;;;;;;39.40;35.77;;;18.40;99.90;;;;;;5033153;28;20443;-78
2023/09/11 03:34:55;;;;;;;39.33;35.57;;;18.40;99.90;;;;;;5033006;28;20495;-78
2023/09/11 03:37:23;;;;;;;44.83;40.43;;;18.40;99.90;;;;;;5033292;28;20869;-78
2023/09/11 03:39:52;;;;;;;39.53;35.73;;;18.30;99.90;;;;;;5032710;28;20503;-78
2023/09/11 03:42:21;;;;;;;38.93;35.27;;;18.30;99.90;;;;;;5032776;28;20949;-78
2023/09/11 03:44:51;;;;;;;38.87;35.17;;;18.30;99.90;;;;;;5032758;28;20885;-78
2023/09/11 03:47:20;;;;;;;40.50;36.50;;;18.30;99.90;;;;;;5032829;28;20972;-78
2023/09/11 03:49:48;;;;;;;38.90;35.03;;;18.30;99.90;;;;;;5033001;28;20879;-78
2023/09/11 03:52:16;;;;;;;37.40;34.00;;;18.30;99.90;;;;;;5032738;28;21000;-78
2023/09/11 03:54:45;;;;;;;39.53;35.80;;;18.30;99.90;;;;;;5032636;28;20494;-78
2023/09/11 03:57:13;;;;;;;42.47;38.37;;;18.20;99.90;;;;;;5032566;28;20504;-78
2023/09/11 03:59:42;;;;;;;41.03;36.87;;;18.20;99.90;;;;;;5032547;28;20509;-78
2023/09/11 04:02:11;;;;;;;39.90;36.20;;;18.20;99.90;;;;;;5032699;28;20505;-78
2023/09/11 04:04:39;;;;;;;38.70;35.10;;;18.20;99.90;;;;;;5032691;28;20514;-78
2023/09/11 04:07:08;;;;;;;39.80;36.00;;;18.20;99.90;;;;;;5032662;28;20435;-78
2023/09/11 04:09:36;;;;;;;38.90;35.30;;;18.20;99.90;;;;;;5032731;28;20483;-77
2023/09/11 04:12:06;;;;;;;38.53;34.97;;;18.20;99.90;;;;;;5033791;28;20431;-78
2023/09/11 04:14:37;;;;;;;38.50;34.90;;;18.20;99.90;;;;;;5033522;28;20490;-78
2023/09/11 04:17:05;;;;;;;36.67;33.17;;;18.10;99.90;;;;;;5032223;28;20431;-77
2023/09/11 04:19:35;;;;;;;39.53;35.73;;;18.10;99.90;;;;;;5032352;28;20807;-78
2023/09/11 04:22:04;;;;;;;39.80;35.90;;;18.10;99.90;;;;;;5032312;28;20520;-77
2023/09/11 04:24:33;;;;;;;36.37;32.97;;;18.10;99.90;;;;;;5032127;28;20470;-77
2023/09/11 04:27:01;;;;;;;37.70;34.10;;;18.10;99.90;;;;;;5032145;28;20470;-78
2023/09/11 04:29:30;;;;;;;37.37;33.97;;;18.10;99.90;;;;;;5032307;28;20441;-77
2023/09/11 04:31:58;;;;;;;38.43;34.73;;;18.10;99.90;;;;;;5032241;28;20544;-78
2023/09/11 04:34:27;;;;;;;42.50;38.40;;;18.10;99.90;;;;;;5032200;28;20491;-78
2023/09/11 04:36:56;;;;;;;43.07;38.80;;;18.00;99.90;;;;;;5032060;28;20502;-77
2023/09/11 04:39:25;;;;;;;39.03;35.40;;;18.00;99.90;;;;;;5032030;28;20866;-78
2023/09/11 04:41:53;;;;;;;37.37;34.07;;;18.00;99.90;;;;;;5033139;28;20470;-77
2023/09/11 04:44:21;;;;;;;40.87;37.07;;;18.00;99.90;;;;;;5031857;28;20461;-77
2023/09/11 04:46:49;;;;;;;42.00;37.80;;;18.00;99.90;;;;;;5032126;28;20447;-78
2023/09/11 04:49:18;;;;;;;40.60;36.80;;;17.90;99.90;;;;;;5031863;28;20542;-77
2023/09/11 04:51:46;;;;;;;36.83;33.43;;;17.90;99.90;;;;;;5035044;28;20451;-77
2023/09/11 04:54:16;;;;;;;36.70;33.20;;;17.90;99.90;;;;;;5035794;28;20437;-78
2023/09/11 04:56:44;;;;;;;34.87;31.60;;;17.90;99.90;;;;;;5035963;28;20210;-78
2023/09/11 04:59:12;;;;;;;35.43;32.30;;;17.90;99.90;;;;;;5035963;28;20817;-77
2023/09/11 05:01:40;;;;;;;35.90;32.50;;;17.90;99.90;;;;;;5036395;28;20573;-78
2023/09/11 05:04:09;;;;;;;38.27;34.73;;;17.90;99.90;;;;;;5035713;28;20504;-77
2023/09/11 05:06:37;;;;;;;35.40;32.00;;;17.90;99.90;;;;;;5036119;28;20965;-78
2023/09/11 05:09:07;;;;;;;35.47;32.33;;;17.90;99.90;;;;;;5035971;28;20453;-78
2023/09/11 05:11:44;;;;;;;33.50;30.50;;;17.90;99.90;;;;;;5035882;28;20447;-78
2023/09/11 05:14:13;;;;;;;36.07;32.87;;;17.90;99.90;;;;;;5035703;28;20477;-78
2023/09/11 05:16:42;;;;;;;37.57;33.87;;;17.90;99.90;;;;;;5035758;28;20446;-78
2023/09/11 05:19:10;;;;;;;37.50;34.10;;;17.90;99.90;;;;;;5035565;28;20473;-78
2023/09/11 05:21:38;;;;;;;38.23;34.83;;;17.90;99.90;;;;;;5035545;28;20557;-78
2023/09/11 05:24:06;;;;;;;35.93;32.80;;;17.90;99.90;;;;;;5036615;28;21060;-78
2023/09/11 05:26:35;;;;;;;39.07;35.47;;;17.90;99.90;;;;;;5035820;28;20802;-78
2023/09/11 05:29:05;;;;;;;35.87;32.57;;;17.90;99.90;;;;;;5035257;28;20457;-78
2023/09/11 05:31:33;;;;;;;36.63;33.10;;;17.90;99.90;;;;;;5035466;28;20454;-76
2023/09/11 05:34:02;;;;;;;35.63;32.33;;;17.90;99.90;;;;;;5036756;28;20459;-77
2023/09/11 05:36:30;;;;;;;38.40;35.00;;;17.90;99.90;;;;;;5035017;28;20454;-76
2023/09/11 05:38:58;;;;;;;34.97;31.77;;;17.90;99.90;;;;;;5036500;28;20959;-76
2023/09/11 05:41:26;;;;;;;33.03;30.07;;;17.90;99.90;;;;;;5036326;28;20553;-77
2023/09/11 05:43:54;;;;;;;34.07;31.07;;;17.90;99.90;;;;;;5036694;28;20466;-77
2023/09/11 05:46:24;;;;;;;35.23;31.73;;;17.90;99.90;;;;;;5035056;28;20528;-77
2023/09/11 05:48:53;;;;;;;33.00;30.07;;;17.90;99.90;;;;;;5035277;28;20867;-77
2023/09/11 05:51:21;;;;;;;35.60;32.03;;;17.90;99.90;;;;;;5036431;28;20489;-77
2023/09/11 05:53:49;;;;;;;34.80;31.60;;;17.90;99.90;;;;;;5034841;28;20466;-77
2023/09/11 05:56:19;;;;;;;36.00;32.63;;;18.00;99.90;;;;;;5036280;28;20498;-77
2023/09/11 05:58:47;;;;;;;33.20;29.90;;;18.00;99.90;;;;;;5036077;28;20431;-77
2023/09/11 06:01:15;;;;;;;34.77;31.57;;;18.00;99.90;;;;;;5034352;28;20540;-77
2023/09/11 06:03:45;;;;;;;32.97;29.97;;;18.00;99.90;;;;;;5033624;28;20844;-77
2023/09/11 06:06:13;;;;;;;32.30;29.50;;;18.10;99.90;;;;;;5034739;28;20457;-77
2023/09/11 06:08:41;;;;;;;32.57;29.63;;;18.10;99.90;;;;;;5036098;28;20437;-77
2023/09/11 06:11:10;;;;;;;33.50;30.50;;;18.10;99.90;;;;;;5036109;28;20471;-77
2023/09/11 06:13:40;;;;;;;33.07;30.07;;;18.20;99.90;;;;;;5035750;28;20458;-77
2023/09/11 06:16:08;;;;;;;34.70;31.70;;;18.20;99.90;;;;;;5036037;28;20501;-77
2023/09/11 06:18:37;;;;;;;33.57;30.60;;;18.30;99.90;;;;;;5036171;28;20439;-77
2023/09/11 06:21:07;;;;;;;34.23;30.73;;;18.30;99.90;;;;;;5035800;28;20533;-77
2023/09/11 06:23:35;;;;;;;32.40;29.60;;;18.40;99.90;;;;;;5034370;28;20478;-77
2023/09/11 06:26:03;;;;;;;31.43;28.50;;;18.50;99.90;;;;;;5034199;28;20462;-77
2023/09/11 06:28:32;;;;;;;32.20;29.30;;;18.60;99.90;;;;;;5035786;28;20953;-77
2023/09/11 06:31:00;;;;;;;31.57;28.67;;;18.70;99.90;;;;;;5035495;28;20440;-75
2023/09/11 06:33:28;;;;;;;31.40;28.70;;;18.80;99.90;;;;;;5035487;28;20431;-75
2023/09/11 06:35:57;;;;;;;30.47;27.67;;;18.90;99.90;;;;;;5036009;28;20454;-78
2023/09/11 06:38:26;;;;;;;30.53;27.90;;;18.90;99.90;;;;;;5043623;28;20435;-75
2023/09/11 06:40:55;;;;;;;30.00;27.20;;;19.00;99.90;;;;;;5034090;28;20451;-76
2023/09/11 06:43:23;;;;;;;27.70;25.00;;;19.10;99.90;;;;;;5035096;28;20996;-76
2023/09/11 06:45:52;;;;;;;27.60;25.03;;;19.20;99.90;;;;;;5034042;28;20486;-76
2023/09/11 06:48:22;;;;;;;30.00;27.10;;;19.30;99.90;;;;;;5033849;28;20554;-76
2023/09/11 06:50:53;;;;;;;29.30;26.70;;;19.30;99.90;;;;;;5033892;28;20817;-76
2023/09/11 06:53:22;;;;;;;30.10;27.30;;;19.40;99.90;;;;;;5034884;28;20442;-76
2023/09/11 06:55:51;;;;;;;29.40;26.73;;;19.50;99.90;;;;;;5033728;28;20481;-76
2023/09/11 06:58:20;;;;;;;27.43;24.83;;;19.50;99.90;;;;;;5035195;28;20534;-76
2023/09/11 07:00:48;;;;;;;26.30;24.00;;;19.60;99.90;;;;;;5035664;28;20439;-77
2023/09/11 07:03:19;;;;;;;28.23;25.50;;;19.70;99.90;;;;;;5035190;28;20593;-76
2023/09/11 07:05:51;;;;;;;26.20;23.83;;;19.80;99.90;;;;;;5035269;28;21004;-76
2023/09/11 07:08:19;;;;;;;27.10;24.60;;;19.80;99.90;;;;;;5033822;28;20451;-75
2023/09/11 07:10:52;;;;;;;27.13;24.73;;;19.80;99.90;;;;;;5034974;28;20461;-76
2023/09/11 07:13:20;;;;;;;26.67;24.00;;;19.80;99.90;;;;;;5034474;28;20423;-76
2023/09/11 07:15:55;;;;;;;26.67;24.03;;;19.90;99.90;;;;;;5034749;28;20526;-77
2023/09/11 07:18:24;;;;;;;27.37;24.77;;;19.90;99.90;;;;;;5034630;28;20850;-76
2023/09/11 07:20:52;;;;;;;25.60;23.10;;;20.00;99.90;;;;;;5035164;28;20435;-75
2023/09/11 07:23:22;;;;;;;26.60;24.10;;;20.00;99.90;;;;;;5034995;28;20471;-76
2023/09/11 07:25:52;;;;;;;25.33;22.70;;;20.00;99.90;;;;;;5035223;28;21015;-76
2023/09/11 07:28:20;;;;;;;23.67;21.47;;;20.10;99.90;;;;;;5033580;28;20973;-75
2023/09/11 07:30:48;;;;;;;25.10;22.77;;;20.10;99.90;;;;;;5033433;28;20439;-75
2023/09/11 07:33:16;;;;;;;25.27;22.67;;;20.10;99.90;;;;;;5034708;28;20450;-76
2023/09/11 07:35:45;;;;;;;22.53;20.63;;;20.20;99.90;;;;;;5034833;28;20534;-76
2023/09/11 07:38:13;;;;;;;23.73;21.63;;;20.20;99.90;;;;;;5034925;28;20500;-76
2023/09/11 07:40:42;;;;;;;22.50;20.60;;;20.30;99.90;;;;;;5034295;28;20438;-76
2023/09/11 07:43:13;;;;;;;22.53;20.43;;;20.30;99.90;;;;;;5034647;28;20477;-75
2023/09/11 07:45:41;;;;;;;22.03;20.20;;;20.40;99.90;;;;;;5033151;28;20513;-77
2023/09/11 07:48:09;;;;;;;21.43;19.43;;;20.40;99.90;;;;;;5034137;28;20453;-76
2023/09/11 07:50:37;;;;;;;22.33;20.27;;;20.50;99.90;;;;;;5034144;28;20464;-76
2023/09/11 07:53:06;;;;;;;21.17;18.97;;;20.60;99.90;;;;;;5032913;28;20457;-76
2023/09/11 07:55:37;;;;;;;19.10;17.30;;;20.70;99.90;;;;;;5034327;28;20439;-76
2023/09/11 07:58:05;;;;;;;19.13;17.23;;;20.80;99.90;;;;;;5032640;28;20454;-74
2023/09/11 08:00:35;;;;;;;20.50;18.50;;;20.80;99.90;;;;;;5034095;28;20530;-75
2023/09/11 08:03:03;;;;;;;22.20;17.00;;;21.00;99.90;;;;;;5033025;28;21032;-74
2023/09/11 08:05:31;;;;;;;19.10;17.50;;;21.10;99.90;;;;;;5032525;28;20520;-74
2023/09/11 08:08:02;;;;;;;19.80;18.10;;;21.20;99.90;;;;;;5033772;28;20493;-74
2023/09/11 08:10:30;;;;;;;18.63;16.87;;;21.30;99.90;;;;;;5034431;28;20937;-74
2023/09/11 08:12:58;;;;;;;15.30;13.80;;;21.40;99.90;;;;;;5033903;28;20442;-74
2023/09/11 08:15:28;;;;;;;16.10;14.53;;;21.60;99.90;;;;;;5034730;28;21024;-74
2023/09/11 08:17:57;;;;;;;16.30;14.90;;;21.70;99.90;;;;;;5033442;28;20865;-75
2023/09/11 08:20:25;;;;;;;17.43;15.73;;;21.80;99.90;;;;;;5032448;28;21019;-74
2023/09/11 08:22:54;;;;;;;16.97;15.47;;;21.90;99.90;;;;;;5032178;28;20463;-74
2023/09/11 08:25:22;;;;;;;17.00;15.50;;;22.00;99.90;;;;;;5033361;28;20490;-75
2023/09/11 08:27:50;;;;;;;15.87;14.30;;;22.10;99.90;;;;;;5034082;28;20530;-74
2023/09/11 08:30:18;;;;;;;17.47;15.57;;;22.20;99.90;;;;;;5032399;28;20450;-74
2023/09/11 08:32:46;;;;;;;16.53;14.70;;;22.30;99.90;;;;;;5034344;28;20442;-74
2023/09/11 08:35:16;;;;;;;15.70;14.50;;;22.40;99.90;;;;;;5033453;28;20474;-75
2023/09/11 08:37:44;;;;;;;17.27;14.93;;;22.50;99.90;;;;;;5033396;28;20920;-74
2023/09/11 08:40:13;;;;;;;17.30;15.50;;;22.60;99.90;;;;;;5033723;28;20443;-74
2023/09/11 08:42:41;;;;;;;15.97;14.30;;;22.70;99.90;;;;;;5032292;28;20481;-75
2023/09/11 08:45:09;;;;;;;16.97;15.47;;;22.70;99.90;;;;;;5033593;28;20459;-75
2023/09/11 08:47:39;;;;;;;15.17;13.97;;;22.90;99.90;;;;;;5033320;28;20443;-74
2023/09/11 08:50:08;;;;;;;15.57;14.17;;;22.90;99.90;;;;;;5033468;28;20462;-74
2023/09/11 08:52:40;;;;;;;13.77;12.47;;;23.00;99.90;;;;;;5032409;28;20455;-74
2023/09/11 08:55:10;;;;;;;15.87;14.30;;;23.10;99.90;;;;;;5031977;28;20888;-75
2023/09/11 08:57:41;;;;;;;15.67;13.37;;;23.20;99.90;;;;;;5033444;28;20439;-75
2023/09/11 09:00:13;;;;;;;15.50;13.97;;;23.30;99.90;;;;;;5032094;28;20467;-75
2023/09/11 09:02:43;;;;;;;14.53;13.23;;;23.30;99.90;;;;;;5033404;28;20461;-75
2023/09/11 09:05:12;;;;;;;20.60;14.00;;;23.40;99.90;;;;;;5033072;28;20467;-74
2023/09/11 09:07:44;;;;;;;16.03;13.23;;;23.50;99.90;;;;;;5033755;28;20867;-74
2023/09/11 09:10:12;;;;;;;14.00;12.70;;;23.60;99.90;;;;;;5032065;28;20538;-74
2023/09/11 09:12:41;;;;;;;13.83;12.63;;;23.70;99.90;;;;;;5033556;28;20439;-74
2023/09/11 09:15:10;;;;;;;15.03;13.50;;;23.80;99.90;;;;;;5032656;28;20462;-75
2023/09/11 09:17:39;;;;;;;13.90;12.50;;;23.90;99.90;;;;;;5033002;28;20439;-75
2023/09/11 09:20:08;;;;;;;14.23;12.73;;;24.00;99.90;;;;;;5033875;28;20431;-75
2023/09/11 09:22:52;;;;;;;14.30;12.50;;;24.20;99.90;;;;;;5032641;28;21023;-75
2023/09/11 09:25:20;;;;;;;15.47;12.73;;;24.20;99.90;;;;;;5033940;28;20454;-75
2023/09/11 09:27:49;;;;;;;14.37;12.07;;;24.30;99.90;;;;;;5033948;28;20866;-75
2023/09/11 09:30:21;;;;;;;13.67;12.27;;;24.50;99.90;;;;;;5033965;28;20798;-75
2023/09/11 09:32:50;;;;;;;12.43;11.23;;;24.50;99.90;;;;;;5033938;28;20771;-75
2023/09/11 09:35:21;;;;;;;13.23;11.13;;;24.60;99.90;;;;;;5032448;28;20463;-75
2023/09/11 09:37:53;;;;;;;14.13;11.63;;;24.70;99.90;;;;;;5036551;28;20455;-75
2023/09/11 09:40:39;;;;;;;12.83;11.63;;;24.80;99.90;;;;;;5037814;28;20429;-75
2023/09/11 09:43:15;;;;;;;12.37;10.60;;;24.90;99.90;;;;;;5037458;28;20558;-75
2023/09/11 09:45:43;;;;;;;13.10;11.50;;;25.00;99.90;;;;;;5036479;28;20438;-75
2023/09/11 09:48:14;;;;;;;13.10;11.80;;;25.10;99.90;;;;;;5036352;28;20832;-75
2023/09/11 09:50:52;;;;;;;11.57;10.40;;;25.10;99.90;;;;;;5037436;28;20422;-75
2023/09/11 09:53:24;;;;;;;13.10;11.73;;;25.30;99.90;;;;;;5037233;28;20430;-75
2023/09/11 09:55:54;;;;;;;16.40;10.73;;;25.30;99.90;;;;;;5035996;28;20446;-75
2023/09/11 09:58:24;;;;;;;14.03;12.30;;;25.40;99.90;;;;;;5037137;28;20431;-75
2023/09/11 10:00:58;;;;;;;13.97;11.90;;;25.50;99.90;;;;;;5037466;28;20506;-75
2023/09/11 10:03:28;;;;;;;13.70;10.93;;;25.60;99.90;;;;;;5035840;28;20470;-76
2023/09/11 10:05:57;;;;;;;14.57;11.73;;;25.70;99.90;;;;;;5037040;28;20447;-75
2023/09/11 10:08:26;;;;;;;11.93;10.83;;;25.70;99.90;;;;;;5035862;28;20451;-75
2023/09/11 10:10:54;;;;;;;13.17;10.90;;;25.80;99.90;;;;;;5035646;28;20493;-76
2023/09/11 10:13:24;;;;;;;12.20;9.90;;;25.90;99.90;;;;;;5037218;28;20854;-76
2023/09/11 10:15:52;;;;;;;17.80;10.53;;;25.90;99.90;;;;;;5036564;28;20946;-76
2023/09/11 10:18:20;;;;;;;12.53;11.33;;;26.00;99.90;;;;;;5037155;28;20519;-75
2023/09/11 10:20:50;;;;;;;16.13;10.47;;;26.10;99.90;;;;;;5035481;28;20457;-76
2023/09/11 10:23:18;;;;;;;11.13;10.10;;;26.20;99.90;;;;;;5036730;28;20503;-76
2023/09/11 10:25:53;;;;;;;14.07;11.13;;;26.20;99.90;;;;;;5036540;28;20435;-76
2023/09/11 10:28:26;;;;;;;12.70;10.70;;;26.30;99.90;;;;;;5035056;28;20438;-76
2023/09/11 10:30:58;;;;;;;14.53;9.93;;;26.40;99.90;;;;;;5036355;28;20447;-76
2023/09/11 10:33:37;;;;;;;13.30;10.60;;;26.40;99.90;;;;;;5037123;28;20545;-76
2023/09/11 10:36:11;;;;;;;13.00;10.00;;;26.50;99.90;;;;;;5036613;28;20463;-76
2023/09/11 10:38:39;;;;;;;12.97;9.83;;;26.50;99.90;;;;;;5036372;28;20459;-76
2023/09/11 10:41:09;;;;;;;12.27;10.53;;;26.60;99.90;;;;;;5036183;28;20517;-76
2023/09/11 10:43:38;;;;;;;13.00;10.77;;;26.70;99.90;;;;;;5035815;28;20467;-76
2023/09/11 10:46:18;;;;;;;13.97;11.27;;;26.70;99.90;;;;;;5033893;28;20952;-76
2023/09/11 10:48:47;;;;;;;11.70;9.53;;;26.80;99.90;;;;;;5033173;28;20488;-76
2023/09/11 10:51:16;;;;;;;13.87;11.17;;;26.90;99.90;;;;;;5035101;28;20431;-76
2023/09/11 10:53:48;;;;;;;15.60;9.43;;;26.90;99.90;;;;;;5035000;28;20459;-76
2023/09/11 10:56:17;;;;;;;13.23;10.47;;;27.00;99.90;;;;;;5035655;28;20419;-76
2023/09/11 10:58:46;;;;;;;16.23;10.20;;;27.10;99.90;;;;;;5035203;28;20793;-76
2023/09/11 11:01:14;;;;;;;11.67;10.47;;;27.10;99.90;;;;;;5034954;28;20533;-76
2023/09/11 11:03:43;;;;;;;11.73;8.87;;;27.20;99.90;;;;;;5033501;28;20479;-76
2023/09/11 11:06:17;;;;;;;10.57;9.37;;;27.20;99.90;;;;;;5034376;28;20454;-76
2023/09/11 11:08:47;;;;;;;13.97;10.60;;;27.30;99.90;;;;;;5035747;28;20416;-76
2023/09/11 11:11:25;;;;;;;11.67;10.47;;;27.30;99.90;;;;;;5033609;28;20788;-76
2023/09/11 11:14:17;;;;;;;12.20;10.77;;;27.40;99.90;;;;;;5035490;28;20538;-76
2023/09/11 11:16:59;;;;;;;11.33;9.53;;;27.40;99.90;;;;;;5034717;28;20428;-76
2023/09/11 11:19:32;;;;;;;12.90;9.80;;;27.50;99.90;;;;;;5033355;28;20467;-76
2023/09/11 11:22:01;;;;;;;11.30;9.97;;;27.60;99.90;;;;;;5033461;28;21029;-76
2023/09/11 11:24:34;;;;;;;11.07;9.53;;;27.60;99.90;;;;;;5033064;28;20570;-76
2023/09/11 11:27:09;;;;;;;11.67;10.47;;;27.70;99.90;;;;;;5035012;28;20419;-76
2023/09/11 11:29:38;;;;;;;12.13;10.20;;;27.80;99.90;;;;;;5033177;28;20448;-76
2023/09/11 11:32:10;;;;;;;9.93;8.93;;;27.80;99.90;;;;;;5033207;28;20443;-76
2023/09/11 11:34:41;;;;;;;9.20;8.20;;;27.80;99.90;;;;;;5034302;28;20513;-76
2023/09/11 11:37:11;;;;;;;12.37;8.37;;;27.90;99.90;;;;;;5034541;28;20473;-76
2023/09/11 11:39:41;;;;;;;9.73;8.77;;;27.90;99.90;;;;;;5032914;28;20795;-76
2023/09/11 11:42:11;;;;;;;9.80;8.90;;;28.00;99.90;;;;;;5032913;28;20454;-76
2023/09/11 11:44:39;;;;;;;18.10;8.60;;;28.00;99.90;;;;;;5034027;28;20475;-76
2023/09/11 11:47:08;;;;;;;10.93;8.47;;;28.10;99.90;;;;;;5034357;28;20442;-76
2023/09/11 11:49:37;;;;;;;10.20;9.00;;;28.10;99.90;;;;;;5033044;28;20447;-76
2023/09/11 11:52:06;;;;;;;11.27;8.60;;;28.20;99.90;;;;;;5034628;28;20467;-76
2023/09/11 11:54:35;;;;;;;14.03;8.40;;;28.20;99.90;;;;;;5033920;28;20451;-76
2023/09/11 11:57:05;;;;;;;9.97;8.47;;;28.30;99.90;;;;;;5032555;28;20501;-75
2023/09/11 11:59:39;;;;;;;9.47;8.47;;;28.30;99.90;;;;;;5032558;28;20475;-76
2023/09/11 12:02:20;;;;;;;10.90;9.80;;;28.40;99.90;;;;;;5033779;28;20890;-76
2023/09/11 12:04:48;;;;;;;10.23;9.27;;;28.40;99.90;;;;;;5033935;28;20922;-77
2023/09/11 12:07:18;;;;;;;10.50;8.43;;;28.50;99.90;;;;;;5033690;28;20435;-76
2023/09/11 12:09:46;;;;;;;10.57;9.03;;;28.50;99.90;;;;;;5033662;28;20474;-76
2023/09/11 12:12:14;;;;;;;11.03;9.93;;;28.50;99.90;;;;;;5032323;28;20494;-76
2023/09/11 12:14:44;;;;;;;11.77;8.33;;;28.60;99.90;;;;;;5033446;28;20450;-76
2023/09/11 12:17:12;;;;;;;13.67;8.87;;;28.60;99.90;;;;;;5032203;28;20514;-76
2023/09/11 12:19:41;;;;;;;10.17;9.00;;;28.70;99.90;;;;;;5033525;28;20439;-76
2023/09/11 12:22:09;;;;;;;12.10;8.90;;;28.70;99.90;;;;;;5033425;28;20485;-76
2023/09/11 12:24:37;;;;;;;10.27;8.60;;;28.80;99.90;;;;;;5033364;28;20561;-76
2023/09/11 12:27:07;;;;;;;11.77;9.40;;;28.80;99.90;;;;;;5032410;28;20447;-76
2023/09/11 12:29:35;;;;;;;11.13;9.10;;;28.80;99.90;;;;;;5033770;28;20446;-76
2023/09/11 12:32:06;;;;;;;11.47;9.80;;;28.90;99.90;;;;;;5033311;28;20439;-76
2023/09/11 12:34:44;;;;;;;9.60;8.70;;;28.90;99.90;;;;;;5033826;28;20501;-76
2023/09/11 12:37:12;;;;;;;11.00;9.90;;;28.90;99.90;;;;;;5032004;28;20451;-76
2023/09/11 12:39:41;;;;;;;9.43;8.60;;;29.00;99.90;;;;;;5031962;28;20451;-76
2023/09/11 12:42:09;;;;;;;10.77;8.83;;;29.10;99.90;;;;;;5033610;28;20964;-76